sensor_id;sensor_type;location;lat;lon;timestamp;temperature;humidity
19586;DHT22;9939;49.246;9.106;2023-07-13T00:02:00;19.00;99.90
19586;DHT22;9939;49.246;9.106;2023-07-13T00:04:26;19.00;99.90
19586;DHT22;9939;49.246;9.106;2023-07-13T00:06:53;18.90;99.90
19586;DHT22;9939;49.246;9.106;2023-07-13T00:09:20;18.90;99.90
19586;DHT22;9939;49.246;9.106;2023-07-13T00:11:53;18.80;99.90
19586;DHT22;9939;49.246;9.106;2023-07-13T00:14:20;18.70;99.90
19586;DHT22;9939;49.246;9.106;2023-07-13T00:16:47;18.70;99.90
19586;DHT22;9939;49.246;9.106;2023-07-13T00:19:14;18.50;99.90
19586;DHT22;9939;49.246;9.106;2023-07-13T00:21:41;18.50;99.90
19586;DHT22;9939;49.246;9.106;2023-07-13T00:24:10;18.40;99.90
19586;DHT22;9939;49.246;9.106;2023-07-13T00:26:39;18.40;99.90
19586;DHT22;9939;49.246;9.106;2023-07-13T00:29:06;18.50;99.90
19586;DHT22;9939;49.246;9.106;2023-07-13T00:31:35;18.30;99.90
19586;DHT22;9939;49.246;9.106;2023-07-13T00:34:03;18.40;99.90
19586;DHT22;9939;49.246;9.106;2023-07-13T00:36:30;18.30;99.90
19586;DHT22;9939;49.246;9.106;2023-07-13T00:38:57;18.20;99.90
19586;DHT22;9939;49.246;9.106;2023-07-13T00:41:24;18.10;99.90
19586;DHT22;9939;49.246;9.106;2023-07-13T00:43:51;18.10;99.90
19586;DHT22;9939;49.246;9.106;2023-07-13T00:46:28;18.00;99.90
19586;DHT22;9939;49.246;9.106;2023-07-13T00:48:56;18.00;99.90
19586;DHT22;9939;49.246;9.106;2023-07-13T00:51:25;18.10;99.90
19586;DHT22;9939;49.246;9.106;2023-07-13T00:53:55;17.90;99.90
19586;DHT22;9939;49.246;9.106;2023-07-13T00:56:23;17.80;99.90
19586;DHT22;9939;49.246;9.106;2023-07-13T00:58:50;17.70;99.90
19586;DHT22;9939;49.246;9.106;2023-07-13T01:01:17;17.70;99.90
19586;DHT22;9939;49.246;9.106;2023-07-13T01:03:44;17.80;99.90
19586;DHT22;9939;49.246;9.106;2023-07-13T01:06:11;17.70;99.90
19586;DHT22;9939;49.246;9.106;2023-07-13T01:08:38;17.80;99.90
19586;DHT22;9939;49.246;9.106;2023-07-13T01:11:06;17.70;99.90
19586;DHT22;9939;49.246;9.106;2023-07-13T01:13:34;17.80;99.90
19586;DHT22;9939;49.246;9.106;2023-07-13T01:16:03;17.90;99.90
19586;DHT22;9939;49.246;9.106;2023-07-13T01:18:30;17.90;99.90
19586;DHT22;9939;49.246;9.106;2023-07-13T01:20:58;18.00;99.90
19586;DHT22;9939;49.246;9.106;2023-07-13T01:23:26;18.00;99.90
19586;DHT22;9939;49.246;9.106;2023-07-13T01:25:54;17.80;99.90
19586;DHT22;9939;49.246;9.106;2023-07-13T01:28:22;17.70;99.90
19586;DHT22;9939;49.246;9.106;2023-07-13T01:30:50;17.60;99.90
19586;DHT22;9939;49.246;9.106;2023-07-13T01:33:17;17.60;99.90
19586;DHT22;9939;49.246;9.106;2023-07-13T01:35:45;17.50;99.90
19586;DHT22;9939;49.246;9.106;2023-07-13T01:38:14;17.50;99.90
19586;DHT22;9939;49.246;9.106;2023-07-13T01:40:41;17.50;99.90
19586;DHT22;9939;49.246;9.106;2023-07-13T01:43:08;17.40;99.90
19586;DHT22;9939;49.246;9.106;2023-07-13T01:45:34;17.60;99.90
19586;DHT22;9939;49.246;9.106;2023-07-13T01:48:02;17.60;99.90
19586;DHT22;9939;49.246;9.106;2023-07-13T01:50:29;17.60;99.90
19586;DHT22;9939;49.246;9.106;2023-07-13T01:52:55;17.50;99.90
19586;DHT22;9939;49.246;9.106;2023-07-13T01:55:22;17.60;99.90
19586;DHT22;9939;49.246;9.106;2023-07-13T01:57:49;17.60;99.90
19586;DHT22;9939;49.246;9.106;2023-07-13T02:00:16;17.50;99.90
19586;DHT22;9939;49.246;9.106;2023-07-13T02:02:46;17.50;99.90
19586;DHT22;9939;49.246;9.106;2023-07-13T02:05:13;17.20;99.90
19586;DHT22;9939;49.246;9.106;2023-07-13T02:07:40;17.30;99.90
19586;DHT22;9939;49.246;9.106;2023-07-13T02:10:08;17.00;99.90
19586;DHT22;9939;49.246;9.106;2023-07-13T02:12:36;17.00;99.90
19586;DHT22;9939;49.246;9.106;2023-07-13T02:15:03;16.90;99.90
19586;DHT22;9939;49.246;9.106;2023-07-13T02:17:30;16.80;99.90
19586;DHT22;9939;49.246;9.106;2023-07-13T02:19:58;16.60;99.90
19586;DHT22;9939;49.246;9.106;2023-07-13T02:22:25;16.70;99.90
19586;DHT22;9939;49.246;9.106;2023-07-13T02:24:52;16.50;99.90
19586;DHT22;9939;49.246;9.106;2023-07-13T02:27:19;16.40;99.90
19586;DHT22;9939;49.246;9.106;2023-07-13T02:29:46;16.40;99.90
19586;DHT22;9939;49.246;9.106;2023-07-13T02:32:12;16.40;99.90
19586;DHT22;9939;49.246;9.106;2023-07-13T02:34:40;16.40;99.90
19586;DHT22;9939;49.246;9.106;2023-07-13T02:37:08;16.50;99.90
19586;DHT22;9939;49.246;9.106;2023-07-13T02:39:35;16.40;99.90
19586;DHT22;9939;49.246;9.106;2023-07-13T02:42:03;16.40;99.90
19586;DHT22;9939;49.246;9.106;2023-07-13T02:44:30;16.30;99.90
19586;DHT22;9939;49.246;9.106;2023-07-13T02:46:56;16.20;99.90
19586;DHT22;9939;49.246;9.106;2023-07-13T02:49:23;16.10;99.90
19586;DHT22;9939;49.246;9.106;2023-07-13T02:51:50;16.00;99.90
19586;DHT22;9939;49.246;9.106;2023-07-13T02:54:17;16.00;99.90
19586;DHT22;9939;49.246;9.106;2023-07-13T02:56:44;16.00;99.90
19586;DHT22;9939;49.246;9.106;2023-07-13T02:59:11;16.00;99.90
19586;DHT22;9939;49.246;9.106;2023-07-13T03:01:38;16.10;99.90
19586;DHT22;9939;49.246;9.106;2023-07-13T03:04:06;16.40;99.90
19586;DHT22;9939;49.246;9.106;2023-07-13T03:06:34;16.30;99.90
19586;DHT22;9939;49.246;9.106;2023-07-13T03:09:04;16.50;99.90
19586;DHT22;9939;49.246;9.106;2023-07-13T03:11:33;16.70;99.90
19586;DHT22;9939;49.246;9.106;2023-07-13T03:14:08;16.60;99.90
19586;DHT22;9939;49.246;9.106;2023-07-13T03:16:37;16.50;99.90
19586;DHT22;9939;49.246;9.106;2023-07-13T03:19:04;16.40;99.90
19586;DHT22;9939;49.246;9.106;2023-07-13T03:21:31;16.40;99.90
19586;DHT22;9939;49.246;9.106;2023-07-13T03:23:58;16.40;99.90
19586;DHT22;9939;49.246;9.106;2023-07-13T03:26:25;16.30;99.90
19586;DHT22;9939;49.246;9.106;2023-07-13T03:28:51;16.20;99.90
19586;DHT22;9939;49.246;9.106;2023-07-13T03:31:27;16.10;99.90
19586;DHT22;9939;49.246;9.106;2023-07-13T03:33:56;16.00;99.90
19586;DHT22;9939;49.246;9.106;2023-07-13T03:36:25;15.90;99.90
19586;DHT22;9939;49.246;9.106;2023-07-13T03:38:56;15.90;99.90
19586;DHT22;9939;49.246;9.106;2023-07-13T03:41:28;15.80;99.90
19586;DHT22;9939;49.246;9.106;2023-07-13T03:43:55;15.80;99.90
19586;DHT22;9939;49.246;9.106;2023-07-13T03:46:24;15.70;99.90
19586;DHT22;9939;49.246;9.106;2023-07-13T03:48:51;15.60;99.90
19586;DHT22;9939;49.246;9.106;2023-07-13T03:51:18;15.60;99.90
19586;DHT22;9939;49.246;9.106;2023-07-13T03:53:45;15.60;99.90
19586;DHT22;9939;49.246;9.106;2023-07-13T03:56:14;15.60;99.90
19586;DHT22;9939;49.246;9.106;2023-07-13T03:58:43;15.70;99.90
19586;DHT22;9939;49.246;9.106;2023-07-13T04:01:16;15.80;99.90
19586;DHT22;9939;49.246;9.106;2023-07-13T04:03:43;15.90;99.90
19586;DHT22;9939;49.246;9.106;2023-07-13T04:06:19;16.10;99.90
19586;DHT22;9939;49.246;9.106;2023-07-13T04:08:51;16.20;99.90
19586;DHT22;9939;49.246;9.106;2023-07-13T04:11:19;16.10;99.90
19586;DHT22;9939;49.246;9.106;2023-07-13T04:13:46;16.10;99.90
19586;DHT22;9939;49.246;9.106;2023-07-13T04:16:14;16.20;99.90
19586;DHT22;9939;49.246;9.106;2023-07-13T04:18:41;16.30;99.90
19586;DHT22;9939;49.246;9.106;2023-07-13T04:21:08;16.50;99.90
19586;DHT22;9939;49.246;9.106;2023-07-13T04:23:36;16.40;99.90
19586;DHT22;9939;49.246;9.106;2023-07-13T04:26:03;16.60;99.90
19586;DHT22;9939;49.246;9.106;2023-07-13T04:28:30;16.60;99.90
19586;DHT22;9939;49.246;9.106;2023-07-13T04:30:57;16.70;99.90
19586;DHT22;9939;49.246;9.106;2023-07-13T04:33:24;16.60;99.90
19586;DHT22;9939;49.246;9.106;2023-07-13T04:35:51;16.60;99.90
19586;DHT22;9939;49.246;9.106;2023-07-13T04:38:23;16.70;99.90
19586;DHT22;9939;49.246;9.106;2023-07-13T04:40:51;16.80;99.90
19586;DHT22;9939;49.246;9.106;2023-07-13T04:43:18;16.80;99.90
19586;DHT22;9939;49.246;9.106;2023-07-13T04:45:45;16.90;99.90
19586;DHT22;9939;49.246;9.106;2023-07-13T04:48:12;16.80;99.90
19586;DHT22;9939;49.246;9.106;2023-07-13T04:50:39;16.90;99.90
19586;DHT22;9939;49.246;9.106;2023-07-13T04:53:06;16.90;99.90
19586;DHT22;9939;49.246;9.106;2023-07-13T04:55:33;17.00;99.90
19586;DHT22;9939;49.246;9.106;2023-07-13T04:57:59;17.00;99.90
19586;DHT22;9939;49.246;9.106;2023-07-13T05:00:26;16.90;99.90
19586;DHT22;9939;49.246;9.106;2023-07-13T05:02:56;16.90;99.90
19586;DHT22;9939;49.246;9.106;2023-07-13T05:05:24;17.00;99.90
19586;DHT22;9939;49.246;9.106;2023-07-13T05:07:51;16.90;99.90
19586;DHT22;9939;49.246;9.106;2023-07-13T05:10:19;17.00;99.90
19586;DHT22;9939;49.246;9.106;2023-07-13T05:12:46;17.00;99.90
19586;DHT22;9939;49.246;9.106;2023-07-13T05:15:12;17.20;99.90
19586;DHT22;9939;49.246;9.106;2023-07-13T05:17:39;17.30;99.90
19586;DHT22;9939;49.246;9.106;2023-07-13T05:20:08;17.50;99.90
19586;DHT22;9939;49.246;9.106;2023-07-13T05:22:35;17.50;99.90
19586;DHT22;9939;49.246;9.106;2023-07-13T05:25:04;17.70;99.90
19586;DHT22;9939;49.246;9.106;2023-07-13T05:27:31;18.00;99.90
19586;DHT22;9939;49.246;9.106;2023-07-13T05:29:58;18.00;99.90
19586;DHT22;9939;49.246;9.106;2023-07-13T05:32:25;18.20;99.90
19586;DHT22;9939;49.246;9.106;2023-07-13T05:34:51;18.40;99.90
19586;DHT22;9939;49.246;9.106;2023-07-13T05:37:19;18.30;99.90
19586;DHT22;9939;49.246;9.106;2023-07-13T05:39:46;18.40;99.90
19586;DHT22;9939;49.246;9.106;2023-07-13T05:42:12;18.30;99.90
19586;DHT22;9939;49.246;9.106;2023-07-13T05:44:39;18.40;99.90
19586;DHT22;9939;49.246;9.106;2023-07-13T05:47:07;18.50;99.90
19586;DHT22;9939;49.246;9.106;2023-07-13T05:49:34;18.50;99.90
19586;DHT22;9939;49.246;9.106;2023-07-13T05:52:01;18.50;99.90
19586;DHT22;9939;49.246;9.106;2023-07-13T05:54:28;18.70;99.90
19586;DHT22;9939;49.246;9.106;2023-07-13T05:56:55;18.70;99.90
19586;DHT22;9939;49.246;9.106;2023-07-13T05:59:21;18.70;99.90
19586;DHT22;9939;49.246;9.106;2023-07-13T06:01:49;18.90;99.90
19586;DHT22;9939;49.246;9.106;2023-07-13T06:04:16;18.90;99.90
19586;DHT22;9939;49.246;9.106;2023-07-13T06:06:43;18.90;99.90
19586;DHT22;9939;49.246;9.106;2023-07-13T06:09:10;18.70;99.90
19586;DHT22;9939;49.246;9.106;2023-07-13T06:11:37;18.70;99.90
19586;DHT22;9939;49.246;9.106;2023-07-13T06:14:03;18.70;99.90
19586;DHT22;9939;49.246;9.106;2023-07-13T06:16:30;18.90;99.90
19586;DHT22;9939;49.246;9.106;2023-07-13T06:18:57;18.90;99.90
19586;DHT22;9939;49.246;9.106;2023-07-13T06:21:24;18.90;99.90
19586;DHT22;9939;49.246;9.106;2023-07-13T06:23:51;19.00;99.90
19586;DHT22;9939;49.246;9.106;2023-07-13T06:26:18;19.00;99.90
19586;DHT22;9939;49.246;9.106;2023-07-13T06:28:45;19.00;99.90
19586;DHT22;9939;49.246;9.106;2023-07-13T06:31:13;19.30;99.90
19586;DHT22;9939;49.246;9.106;2023-07-13T06:33:41;19.60;99.90
19586;DHT22;9939;49.246;9.106;2023-07-13T06:36:08;20.00;99.90
19586;DHT22;9939;49.246;9.106;2023-07-13T06:38:35;20.30;99.90
19586;DHT22;9939;49.246;9.106;2023-07-13T06:41:03;20.40;99.90
19586;DHT22;9939;49.246;9.106;2023-07-13T06:43:30;20.30;99.90
19586;DHT22;9939;49.246;9.106;2023-07-13T06:45:58;20.60;99.90
19586;DHT22;9939;49.246;9.106;2023-07-13T06:48:25;20.80;99.90
19586;DHT22;9939;49.246;9.106;2023-07-13T06:50:52;20.80;99.90
19586;DHT22;9939;49.246;9.106;2023-07-13T06:53:19;20.80;99.90
19586;DHT22;9939;49.246;9.106;2023-07-13T06:55:46;20.80;99.90
19586;DHT22;9939;49.246;9.106;2023-07-13T06:58:14;20.90;99.90
19586;DHT22;9939;49.246;9.106;2023-07-13T07:00:41;21.00;99.90
19586;DHT22;9939;49.246;9.106;2023-07-13T07:03:09;21.10;99.90
19586;DHT22;9939;49.246;9.106;2023-07-13T07:05:36;20.90;99.90
19586;DHT22;9939;49.246;9.106;2023-07-13T07:08:02;20.80;99.90
19586;DHT22;9939;49.246;9.106;2023-07-13T07:10:30;20.90;99.90
19586;DHT22;9939;49.246;9.106;2023-07-13T07:12:57;21.20;99.90
19586;DHT22;9939;49.246;9.106;2023-07-13T07:15:23;21.20;99.90
19586;DHT22;9939;49.246;9.106;2023-07-13T07:17:50;21.50;99.90
19586;DHT22;9939;49.246;9.106;2023-07-13T07:20:17;21.60;99.90
19586;DHT22;9939;49.246;9.106;2023-07-13T07:22:44;21.60;99.90
19586;DHT22;9939;49.246;9.106;2023-07-13T07:25:11;21.80;99.90
19586;DHT22;9939;49.246;9.106;2023-07-13T07:27:38;22.00;99.90
19586;DHT22;9939;49.246;9.106;2023-07-13T07:30:08;22.10;99.90
19586;DHT22;9939;49.246;9.106;2023-07-13T07:32:37;22.20;99.90
19586;DHT22;9939;49.246;9.106;2023-07-13T07:35:07;22.00;99.90
19586;DHT22;9939;49.246;9.106;2023-07-13T07:37:34;22.30;99.90
19586;DHT22;9939;49.246;9.106;2023-07-13T07:40:04;22.50;99.90
19586;DHT22;9939;49.246;9.106;2023-07-13T07:42:34;22.70;99.90
19586;DHT22;9939;49.246;9.106;2023-07-13T07:45:01;22.90;99.90
19586;DHT22;9939;49.246;9.106;2023-07-13T07:47:28;22.60;99.90
19586;DHT22;9939;49.246;9.106;2023-07-13T07:49:55;22.80;99.90
19586;DHT22;9939;49.246;9.106;2023-07-13T07:52:22;23.10;99.90
19586;DHT22;9939;49.246;9.106;2023-07-13T07:54:48;23.20;99.90
19586;DHT22;9939;49.246;9.106;2023-07-13T07:57:18;23.40;99.90
19586;DHT22;9939;49.246;9.106;2023-07-13T08:00:05;23.60;99.90
19586;DHT22;9939;49.246;9.106;2023-07-13T08:02:40;23.70;99.90
19586;DHT22;9939;49.246;9.106;2023-07-13T08:05:28;23.80;99.90
19586;DHT22;9939;49.246;9.106;2023-07-13T08:07:57;23.50;99.90
19586;DHT22;9939;49.246;9.106;2023-07-13T08:10:24;23.70;99.90
19586;DHT22;9939;49.246;9.106;2023-07-13T08:12:51;23.50;99.90
19586;DHT22;9939;49.246;9.106;2023-07-13T08:15:21;23.40;99.90
19586;DHT22;9939;49.246;9.106;2023-07-13T08:17:48;23.40;99.90
19586;DHT22;9939;49.246;9.106;2023-07-13T08:20:16;23.70;99.90
19586;DHT22;9939;49.246;9.106;2023-07-13T08:22:42;23.70;99.90
19586;DHT22;9939;49.246;9.106;2023-07-13T08:25:09;24.10;99.90
19586;DHT22;9939;49.246;9.106;2023-07-13T08:27:36;24.30;99.90
19586;DHT22;9939;49.246;9.106;2023-07-13T08:30:03;24.30;99.90
19586;DHT22;9939;49.246;9.106;2023-07-13T08:32:32;24.30;99.90
19586;DHT22;9939;49.246;9.106;2023-07-13T08:34:58;24.60;99.90
19586;DHT22;9939;49.246;9.106;2023-07-13T08:37:25;24.80;99.90
19586;DHT22;9939;49.246;9.106;2023-07-13T08:39:52;24.60;99.90
19586;DHT22;9939;49.246;9.106;2023-07-13T08:42:27;24.70;99.90
19586;DHT22;9939;49.246;9.106;2023-07-13T08:47:48;24.50;99.90
19586;DHT22;9939;49.246;9.106;2023-07-13T08:50:17;24.60;99.90
19586;DHT22;9939;49.246;9.106;2023-07-13T08:52:45;25.00;99.90
19586;DHT22;9939;49.246;9.106;2023-07-13T08:55:17;24.80;99.90
19586;DHT22;9939;49.246;9.106;2023-07-13T08:57:45;24.70;99.90
19586;DHT22;9939;49.246;9.106;2023-07-13T09:00:13;25.00;99.90
19586;DHT22;9939;49.246;9.106;2023-07-13T09:02:55;25.20;99.90
19586;DHT22;9939;49.246;9.106;2023-07-13T09:05:25;25.40;99.90
19586;DHT22;9939;49.246;9.106;2023-07-13T09:12:59;25.70;99.90
19586;DHT22;9939;49.246;9.106;2023-07-13T09:15:32;26.00;99.90
19586;DHT22;9939;49.246;9.106;2023-07-13T09:18:08;26.30;99.90
19586;DHT22;9939;49.246;9.106;2023-07-13T09:21:23;26.10;99.80
19586;DHT22;9939;49.246;9.106;2023-07-13T09:23:24;26.00;99.70
19586;DHT22;9939;49.246;9.106;2023-07-13T09:25:53;25.90;99.80
19586;DHT22;9939;49.246;9.106;2023-07-13T09:28:44;26.20;99.90
19586;DHT22;9939;49.246;9.106;2023-07-13T09:31:55;26.80;99.90
19586;DHT22;9939;49.246;9.106;2023-07-13T09:33:56;26.20;99.90
19586;DHT22;9939;49.246;9.106;2023-07-13T09:36:26;26.90;99.40
19586;DHT22;9939;49.246;9.106;2023-07-13T09:41:47;27.50;97.60
19586;DHT22;9939;49.246;9.106;2023-07-13T09:44:17;27.40;97.70
19586;DHT22;9939;49.246;9.106;2023-07-13T09:46:54;28.30;97.00
19586;DHT22;9939;49.246;9.106;2023-07-13T09:49:25;28.60;95.80
19586;DHT22;9939;49.246;9.106;2023-07-13T09:52:00;28.70;95.70
19586;DHT22;9939;49.246;9.106;2023-07-13T09:54:27;30.00;94.10
19586;DHT22;9939;49.246;9.106;2023-07-13T09:56:58;30.10;93.70
19586;DHT22;9939;49.246;9.106;2023-07-13T09:59:33;29.90;93.60
19586;DHT22;9939;49.246;9.106;2023-07-13T10:02:00;30.40;93.30
19586;DHT22;9939;49.246;9.106;2023-07-13T10:04:29;30.20;93.00
19586;DHT22;9939;49.246;9.106;2023-07-13T10:07:06;30.60;92.40
19586;DHT22;9939;49.246;9.106;2023-07-13T10:09:57;30.40;92.70
19586;DHT22;9939;49.246;9.106;2023-07-13T10:12:25;31.00;91.00
19586;DHT22;9939;49.246;9.106;2023-07-13T10:14:52;30.70;92.30
19586;DHT22;9939;49.246;9.106;2023-07-13T10:17:38;31.10;91.10
19586;DHT22;9939;49.246;9.106;2023-07-13T10:20:07;31.70;91.50
19586;DHT22;9939;49.246;9.106;2023-07-13T10:22:43;31.90;89.80
19586;DHT22;9939;49.246;9.106;2023-07-13T10:25:15;32.00;88.10
19586;DHT22;9939;49.246;9.106;2023-07-13T10:27:43;31.50;90.20
19586;DHT22;9939;49.246;9.106;2023-07-13T10:30:15;31.40;87.90
19586;DHT22;9939;49.246;9.106;2023-07-13T10:32:44;31.70;88.20
19586;DHT22;9939;49.246;9.106;2023-07-13T10:35:12;32.20;88.30
19586;DHT22;9939;49.246;9.106;2023-07-13T10:40:46;34.00;81.70
19586;DHT22;9939;49.246;9.106;2023-07-13T10:45:41;30.70;88.30
19586;DHT22;9939;49.246;9.106;2023-07-13T10:48:09;31.30;87.80
19586;DHT22;9939;49.246;9.106;2023-07-13T10:50:42;31.70;86.30
19586;DHT22;9939;49.246;9.106;2023-07-13T10:53:20;30.90;84.20
19586;DHT22;9939;49.246;9.106;2023-07-13T10:58:18;32.30;81.10
19586;DHT22;9939;49.246;9.106;2023-07-13T11:00:49;32.10;82.40
19586;DHT22;9939;49.246;9.106;2023-07-13T11:03:18;31.90;82.40
19586;DHT22;9939;49.246;9.106;2023-07-13T11:05:51;31.50;83.30
19586;DHT22;9939;49.246;9.106;2023-07-13T11:08:20;31.90;83.00
19586;DHT22;9939;49.246;9.106;2023-07-13T11:10:54;32.40;81.90
19586;DHT22;9939;49.246;9.106;2023-07-13T11:13:38;32.80;81.90
19586;DHT22;9939;49.246;9.106;2023-07-13T11:16:13;32.90;80.90
19586;DHT22;9939;49.246;9.106;2023-07-13T11:18:40;30.10;84.20
19586;DHT22;9939;49.246;9.106;2023-07-13T11:21:15;28.80;87.80
19586;DHT22;9939;49.246;9.106;2023-07-13T11:24:03;29.20;88.90
19586;DHT22;9939;49.246;9.106;2023-07-13T11:26:41;30.60;85.10
19586;DHT22;9939;49.246;9.106;2023-07-13T11:31:54;29.30;87.10
19586;DHT22;9939;49.246;9.106;2023-07-13T11:34:23;29.00;88.90
19586;DHT22;9939;49.246;9.106;2023-07-13T11:36:53;29.10;90.10
19586;DHT22;9939;49.246;9.106;2023-07-13T11:39:21;30.40;88.30
19586;DHT22;9939;49.246;9.106;2023-07-13T11:41:51;30.20;87.10
19586;DHT22;9939;49.246;9.106;2023-07-13T11:44:20;30.70;86.50
19586;DHT22;9939;49.246;9.106;2023-07-13T11:46:51;31.70;84.40
19586;DHT22;9939;49.246;9.106;2023-07-13T11:49:25;31.10;86.20
19586;DHT22;9939;49.246;9.106;2023-07-13T11:51:53;29.20;88.60
19586;DHT22;9939;49.246;9.106;2023-07-13T11:56:48;28.40;91.00
19586;DHT22;9939;49.246;9.106;2023-07-13T11:59:15;29.10;90.50
19586;DHT22;9939;49.246;9.106;2023-07-13T12:01:43;28.80;90.80
19586;DHT22;9939;49.246;9.106;2023-07-13T12:04:24;29.40;90.80
19586;DHT22;9939;49.246;9.106;2023-07-13T12:06:56;31.10;88.10
19586;DHT22;9939;49.246;9.106;2023-07-13T12:09:26;32.80;86.80
19586;DHT22;9939;49.246;9.106;2023-07-13T12:11:53;34.10;83.10
19586;DHT22;9939;49.246;9.106;2023-07-13T12:14:20;33.60;80.60
19586;DHT22;9939;49.246;9.106;2023-07-13T12:16:51;32.70;81.70
19586;DHT22;9939;49.246;9.106;2023-07-13T12:19:36;32.50;81.70
19586;DHT22;9939;49.246;9.106;2023-07-13T12:22:03;32.20;81.80
19586;DHT22;9939;49.246;9.106;2023-07-13T12:24:30;33.20;82.00
19586;DHT22;9939;49.246;9.106;2023-07-13T12:27:02;33.70;82.20
19586;DHT22;9939;49.246;9.106;2023-07-13T12:29:29;33.10;80.80
19586;DHT22;9939;49.246;9.106;2023-07-13T12:31:56;34.30;77.70
19586;DHT22;9939;49.246;9.106;2023-07-13T12:34:24;34.90;77.90
19586;DHT22;9939;49.246;9.106;2023-07-13T12:36:52;33.70;77.30
19586;DHT22;9939;49.246;9.106;2023-07-13T12:39:33;31.60;81.50
19586;DHT22;9939;49.246;9.106;2023-07-13T12:42:20;32.30;81.60
19586;DHT22;9939;49.246;9.106;2023-07-13T12:44:50;31.90;82.50
19586;DHT22;9939;49.246;9.106;2023-07-13T12:47:19;31.10;82.10
19586;DHT22;9939;49.246;9.106;2023-07-13T12:49:57;30.90;83.20
19586;DHT22;9939;49.246;9.106;2023-07-13T12:52:31;32.10;81.20
19586;DHT22;9939;49.246;9.106;2023-07-13T12:55:06;32.10;80.80
19586;DHT22;9939;49.246;9.106;2023-07-13T12:57:40;33.30;79.40
19586;DHT22;9939;49.246;9.106;2023-07-13T13:02:46;33.20;77.90
19586;DHT22;9939;49.246;9.106;2023-07-13T13:05:16;31.90;80.20
19586;DHT22;9939;49.246;9.106;2023-07-13T13:07:42;32.30;79.10
19586;DHT22;9939;49.246;9.106;2023-07-13T13:10:13;32.20;80.00
19586;DHT22;9939;49.246;9.106;2023-07-13T13:12:40;33.20;78.80
19586;DHT22;9939;49.246;9.106;2023-07-13T13:15:09;31.90;78.70
19586;DHT22;9939;49.246;9.106;2023-07-13T13:17:36;31.40;81.30
19586;DHT22;9939;49.246;9.106;2023-07-13T13:20:17;30.40;82.40
19586;DHT22;9939;49.246;9.106;2023-07-13T13:22:44;29.60;84.50
19586;DHT22;9939;49.246;9.106;2023-07-13T13:25:12;28.60;86.50
19586;DHT22;9939;49.246;9.106;2023-07-13T13:27:39;29.40;87.30
19586;DHT22;9939;49.246;9.106;2023-07-13T13:32:37;31.70;82.30
19586;DHT22;9939;49.246;9.106;2023-07-13T13:35:03;34.50;78.20
19586;DHT22;9939;49.246;9.106;2023-07-13T13:37:30;37.10;76.30
19586;DHT22;9939;49.246;9.106;2023-07-13T13:39:57;35.80;73.90
19586;DHT22;9939;49.246;9.106;2023-07-13T13:42:35;34.20;75.70
19586;DHT22;9939;49.246;9.106;2023-07-13T13:45:02;31.00;80.10
19586;DHT22;9939;49.246;9.106;2023-07-13T13:47:30;30.00;81.40
19586;DHT22;9939;49.246;9.106;2023-07-13T13:49:58;28.90;84.10
19586;DHT22;9939;49.246;9.106;2023-07-13T13:52:24;28.90;84.20
19586;DHT22;9939;49.246;9.106;2023-07-13T13:54:52;29.70;84.10
19586;DHT22;9939;49.246;9.106;2023-07-13T13:57:23;29.10;84.40
19586;DHT22;9939;49.246;9.106;2023-07-13T13:59:51;29.20;83.50
19586;DHT22;9939;49.246;9.106;2023-07-13T14:02:26;29.10;84.30
19586;DHT22;9939;49.246;9.106;2023-07-13T14:04:54;28.80;85.30
19586;DHT22;9939;49.246;9.106;2023-07-13T14:07:22;29.10;83.60
19586;DHT22;9939;49.246;9.106;2023-07-13T14:09:48;29.30;83.80
19586;DHT22;9939;49.246;9.106;2023-07-13T14:12:15;30.50;83.20
19586;DHT22;9939;49.246;9.106;2023-07-13T14:14:42;32.90;78.20
19586;DHT22;9939;49.246;9.106;2023-07-13T14:17:18;35.30;75.30
19586;DHT22;9939;49.246;9.106;2023-07-13T14:19:48;37.00;71.50
19586;DHT22;9939;49.246;9.106;2023-07-13T14:22:17;38.50;69.10
19586;DHT22;9939;49.246;9.106;2023-07-13T14:24:45;36.70;68.00
19586;DHT22;9939;49.246;9.106;2023-07-13T14:27:11;33.50;72.60
19586;DHT22;9939;49.246;9.106;2023-07-13T14:29:39;31.90;75.30
19586;DHT22;9939;49.246;9.106;2023-07-13T14:32:09;31.40;77.60
19586;DHT22;9939;49.246;9.106;2023-07-13T14:34:36;31.80;76.20
19586;DHT22;9939;49.246;9.106;2023-07-13T14:37:05;32.60;75.10
19586;DHT22;9939;49.246;9.106;2023-07-13T14:39:37;31.90;75.50
19586;DHT22;9939;49.246;9.106;2023-07-13T14:42:04;30.10;78.20
19586;DHT22;9939;49.246;9.106;2023-07-13T14:44:31;29.80;80.20
19586;DHT22;9939;49.246;9.106;2023-07-13T14:46:59;28.80;81.30
19586;DHT22;9939;49.246;9.106;2023-07-13T14:51:57;33.00;76.30
19586;DHT22;9939;49.246;9.106;2023-07-13T14:54:24;34.10;72.30
19586;DHT22;9939;49.246;9.106;2023-07-13T14:56:51;36.00;70.20
19586;DHT22;9939;49.246;9.106;2023-07-13T14:59:18;38.00;69.00
19586;DHT22;9939;49.246;9.106;2023-07-13T15:01:48;39.00;65.80
19586;DHT22;9939;49.246;9.106;2023-07-13T15:04:15;40.30;64.10
19586;DHT22;9939;49.246;9.106;2023-07-13T15:09:21;38.00;63.50
19586;DHT22;9939;49.246;9.106;2023-07-13T15:11:48;38.00;64.70
19586;DHT22;9939;49.246;9.106;2023-07-13T15:14:15;37.00;64.10
19586;DHT22;9939;49.246;9.106;2023-07-13T15:16:41;36.20;66.20
19586;DHT22;9939;49.246;9.106;2023-07-13T15:19:09;36.80;65.20
19586;DHT22;9939;49.246;9.106;2023-07-13T15:21:37;38.20;64.50
19586;DHT22;9939;49.246;9.106;2023-07-13T15:24:03;39.50;62.10
19586;DHT22;9939;49.246;9.106;2023-07-13T15:26:34;38.80;60.90
19586;DHT22;9939;49.246;9.106;2023-07-13T15:29:02;37.70;63.70
19586;DHT22;9939;49.246;9.106;2023-07-13T15:31:29;36.40;64.00
19586;DHT22;9939;49.246;9.106;2023-07-13T15:33:58;35.40;65.40
19586;DHT22;9939;49.246;9.106;2023-07-13T15:36:26;33.90;68.20
19586;DHT22;9939;49.246;9.106;2023-07-13T15:38:53;31.80;70.70
19586;DHT22;9939;49.246;9.106;2023-07-13T15:43:49;35.50;68.00
19586;DHT22;9939;49.246;9.106;2023-07-13T15:46:22;35.10;66.00
19586;DHT22;9939;49.246;9.106;2023-07-13T15:48:49;35.90;66.50
19586;DHT22;9939;49.246;9.106;2023-07-13T15:51:20;35.20;66.70
19586;DHT22;9939;49.246;9.106;2023-07-13T15:53:49;34.60;66.50
19586;DHT22;9939;49.246;9.106;2023-07-13T15:56:17;35.60;67.70
19586;DHT22;9939;49.246;9.106;2023-07-13T15:58:45;36.50;66.20
19586;DHT22;9939;49.246;9.106;2023-07-13T16:01:13;37.10;64.50
19586;DHT22;9939;49.246;9.106;2023-07-13T16:03:40;37.40;64.20
19586;DHT22;9939;49.246;9.106;2023-07-13T16:06:16;34.50;69.20
19586;DHT22;9939;49.246;9.106;2023-07-13T16:08:43;34.90;68.50
19586;DHT22;9939;49.246;9.106;2023-07-13T16:11:15;34.00;70.40
19586;DHT22;9939;49.246;9.106;2023-07-13T16:13:43;35.30;68.30
19586;DHT22;9939;49.246;9.106;2023-07-13T16:16:12;35.30;67.90
19586;DHT22;9939;49.246;9.106;2023-07-13T16:18:39;35.50;67.20
19586;DHT22;9939;49.246;9.106;2023-07-13T16:21:10;33.50;69.20
19586;DHT22;9939;49.246;9.106;2023-07-13T16:23:38;33.90;70.20
19586;DHT22;9939;49.246;9.106;2023-07-13T16:26:28;34.90;69.70
19586;DHT22;9939;49.246;9.106;2023-07-13T16:28:55;34.80;68.20
19586;DHT22;9939;49.246;9.106;2023-07-13T16:31:30;35.10;68.40
19586;DHT22;9939;49.246;9.106;2023-07-13T16:33:58;35.30;67.90